

Wyoming Mesonet
Water Resources Data System and State Climate Office
SEO WACNet, UW USACE UMRB, USDA-ARS, BLM
| Wind | Soil | |||||||||||||||||||
| Temp | Precip | Speed | Dir | Gust | Dir | Humidity | Pressure | Solar | Snow | Temperature (Deg F) | Moisture (%) | |||||||||
| Date Time (MST) | (F) | (in) | (mph) | (deg) | (mph) | (deg) | (%) | (Mbars) | (w/m^2) | (in) | 5cm | 10cm | 20cm | 50cm | 1m | 5cm | 10cm | 20cm | 50cm | 1m |
| 2026-08-30 00:00:00 | 64.36 | 0.00 | 19.51 | 223 | 25.21 | 220 | 57.7 | 849.0 | 0.0 | -0.6 | 77.72 | 81.50 | 81.14 | 77.72 | 72.86 | 0.1% | 8.2% | 7.9% | 3.9% | 6.5% |
| 2026-08-30 01:00:00 | 63.88 | 0.00 | 18.99 | 225 | 26.08 | 222 | 60.0 | 849.0 | 0.0 | -0.6 | 76.64 | 80.60 | 80.78 | 77.90 | 72.86 | 0.1% | 8.2% | 7.9% | 3.9% | 6.4% |
| 2026-08-30 02:00:00 | 63.07 | 0.00 | 18.37 | 223 | 22.73 | 230 | 61.9 | 849.0 | 0.0 | -0.6 | 75.56 | 79.70 | 80.42 | 77.90 | 72.86 | 0.0% | 8.1% | 7.9% | 3.9% | 6.4% |
| 2026-08-30 03:00:00 | 63.66 | 0.00 | 18.07 | 223 | 23.22 | 224 | 59.2 | 850.0 | 0.0 | -0.5 | 74.84 | 78.98 | 80.24 | 77.90 | 72.86 | 0.0% | 8.1% | 7.8% | 3.9% | 6.4% |
| 2026-08-30 04:00:00 | 62.35 | 0.00 | 16.84 | 213 | 22.86 | 221 | 60.8 | 850.0 | 0.0 | -0.5 | 73.94 | 78.44 | 79.88 | 77.90 | 72.86 | 0.0% | 8.1% | 7.8% | 3.9% | 6.4% |
| 2026-08-30 05:00:00 | 62.37 | 0.00 | 21.47 | 216 | 27.20 | 216 | 62.6 | 849.0 | 0.0 | -0.6 | 73.40 | 77.72 | 79.52 | 77.90 | 72.86 | 0.1% | 8.0% | 7.9% | 3.9% | 6.4% |
| 2026-08-30 06:00:00 | 62.08 | 0.00 | 23.85 | 223 | 28.70 | 217 | 63.5 | 850.0 | 27.4 | -0.6 | 72.68 | 77.18 | 79.16 | 77.90 | 72.86 | 0.0% | 7.8% | 7.8% | 3.9% | 6.5% |
| 2026-08-30 07:00:00 | 65.88 | 0.00 | 23.51 | 218 | 28.45 | 226 | 54.7 | 850.0 | 96.1 | -0.5 | 72.32 | 76.64 | 78.80 | 77.90 | 72.86 | 0.1% | 7.9% | 7.7% | 3.8% | 6.4% |
| 2026-08-30 08:00:00 | 67.57 | 0.00 | 21.85 | 217 | 29.19 | 220 | 52.4 | 850.0 | 483.0 | -0.5 | 73.04 | 76.10 | 78.44 | 77.90 | 72.86 | 0.0% | 7.7% | 7.7% | 4.0% | 6.5% |
| 2026-08-30 09:00:00 | 73.74 | 0.00 | 21.92 | 217 | 28.70 | 220 | 40.1 | 850.0 | 642.9 | -0.3 | 75.56 | 75.92 | 78.26 | 77.72 | 72.86 | 0.1% | 7.6% | 7.8% | 3.9% | 6.5% |
| 2026-08-30 10:00:00 | 78.85 | 0.00 | 17.09 | 240 | 27.83 | 237 | 31.2 | 850.0 | 789.0 | -0.3 | 79.34 | 76.10 | 77.90 | 77.72 | 72.86 | 0.2% | 7.7% | 7.6% | 3.9% | 6.4% |
| 2026-08-30 11:00:00 | 79.45 | 0.00 | 16.20 | 229 | 28.45 | 232 | 24.8 | 850.0 | 956.0 | -0.3 | 83.48 | 77.18 | 77.72 | 77.72 | 72.86 | 0.2% | 7.8% | 7.7% | 3.8% | 6.3% |
| 2026-08-30 12:00:00 | 82.87 | 0.00 | 14.46 | 258 | 33.80 | 255 | 24.9 | 849.0 | 372.9 | -0.2 | 86.90 | 78.44 | 77.54 | 77.54 | 72.86 | 0.2% | 8.0% | 7.6% | 3.9% | 6.4% |
| 2026-08-30 13:00:00 | 78.91 | 0.00 | 26.98 | 296 | 42.61 | 296 | 25.5 | 850.0 | 510.9 | -0.6 | 87.80 | 80.06 | 77.72 | 77.54 | 72.86 | 0.2% | 8.1% | 7.7% | 3.8% | 6.5% |
| 2026-08-30 14:00:00 | 68.50 | 0.00 | 22.28 | 345 | 51.05 | 333 | 46.5 | 851.0 | 636.7 | -0.0 | 87.08 | 81.14 | 77.72 | 77.36 | 72.86 | 0.2% | 8.2% | 7.7% | 3.9% | 6.4% |
| 2026-08-30 15:00:00 | 71.01 | 0.00 | 13.34 | 13 | 31.92 | 3 | 45.1 | 851.0 | 394.9 | 0.1 | 86.54 | 81.68 | 78.08 | 77.36 | 72.86 | 0.2% | 8.3% | 7.7% | 3.7% | 6.4% |
| 2026-08-30 16:00:00 | 69.51 | 0.00 | 15.38 | 57 | 24.09 | 30 | 47.1 | 851.0 | 496.7 | 0.2 | 86.18 | 82.22 | 78.44 | 77.18 | 72.86 | 0.2% | 8.2% | 7.8% | 3.7% | 6.4% |
| 2026-08-30 17:00:00 | 71.24 | 0.00 | 8.43 | 83 | 17.64 | 74 | 42.8 | 851.0 | 300.1 | 0.1 | 85.10 | 82.58 | 78.80 | 77.18 | 73.04 | 0.2% | 8.2% | 7.8% | 3.9% | 6.4% |
| 2026-08-30 18:00:00 | 67.30 | 0.00 | 10.86 | 89 | 21.74 | 82 | 49.9 | 851.0 | 119.5 | -0.0 | 83.48 | 82.76 | 78.98 | 77.18 | 72.86 | 0.2% | 8.4% | 7.7% | 3.8% | 6.4% |
| 2026-08-30 19:00:00 | 62.13 | 0.00 | 10.18 | 84 | 16.65 | 85 | 57.2 | 852.0 | 0.0 | -0.1 | 81.50 | 82.58 | 79.34 | 77.18 | 72.86 | 0.2% | 8.2% | 7.9% | 3.8% | 6.4% |
| 2026-08-30 20:00:00 | 59.32 | 0.00 | 8.34 | 85 | 12.17 | 75 | 62.3 | 852.0 | 0.0 | -0.2 | 79.34 | 81.86 | 79.52 | 77.18 | 72.86 | 0.1% | 8.1% | 7.9% | 3.8% | 6.4% |
| 2026-08-30 21:00:00 | 57.45 | 0.00 | 7.33 | 167 | 12.30 | 133 | 65.2 | 853.0 | 0.0 | -0.2 | 77.36 | 81.14 | 79.52 | 77.18 | 72.86 | 0.1% | 8.3% | 7.7% | 3.8% | 6.5% |
| 2026-08-30 22:00:00 | 56.41 | 0.00 | 7.73 | 158 | 11.18 | 140 | 68.5 | 853.0 | 0.0 | -0.2 | 75.56 | 80.24 | 79.70 | 77.18 | 72.86 | 0.1% | 8.1% | 7.8% | 3.7% | 6.4% |
| 2026-08-30 23:00:00 | 57.00 | 0.00 | 7.47 | 156 | 13.54 | 162 | 68.9 | 853.0 | 0.0 | -0.2 | 73.94 | 79.16 | 79.52 | 77.18 | 72.86 | 0.1% | 8.1% | 7.8% | 3.8% | 6.4% |